| time (UTC) | temp F | wind direction | speed knots | gust knots | rain 1hr in | rain 24hr in | rain mn in | humidity % | barometer mb |
| 20260507180033 | 91 | 303 | 1.7 | 3.5 | 0.00 | 0.00 | 0.00 | 56 | 1015.1 |
| 20260507174522 | 91 | 227 | 1.7 | 4.3 | 0.00 | 0.00 | 0.00 | 55 | 1015.2 |
| 20260507173017 | 90 | 186 | 0.9 | 7.0 | 0.00 | 0.00 | 0.00 | 57 | 1015.3 |
| 20260507171514 | 89 | 129 | 1.7 | 4.3 | 0.00 | 0.00 | 0.00 | 61 | 1015.1 |
| 20260507170016 | 89 | 315 | 1.7 | 4.3 | 0.00 | 0.00 | 0.00 | 61 | 1015.4 |
| 20260507164512 | 89 | 134 | 1.7 | 7.8 | 0.00 | 0.00 | 0.00 | 60 | 1015.6 |
| 20260507163010 | 89 | 306 | 1.7 | 5.2 | 0.00 | 0.00 | 0.00 | 61 | 1015.7 |
| 20260507161509 | 88 | 325 | 0.9 | 4.3 | 0.00 | 0.00 | 0.00 | 61 | 1016.0 |
| 20260507160006 | 87 | 235 | 1.7 | 6.1 | 0.00 | 0.00 | 0.00 | 63 | 1016.0 |
| 20260507154506 | 87 | 248 | 1.7 | 5.2 | 0.00 | 0.00 | 0.00 | 63 | 1016.3 |
| 20260507153003 | 86 | 187 | 1.7 | 6.1 | 0.00 | 0.00 | 0.00 | 66 | 1016.3 |
| 20260507151600 | 85 | 266 | 1.7 | 7.0 | 0.00 | 0.00 | 0.00 | 66 | 1016.5 |
| 20260507150104 | 84 | 259 | 1.7 | 6.1 | 0.00 | 0.00 | 0.00 | 69 | 1016.5 |
| 20260507144555 | 84 | 288 | 2.6 | 7.0 | 0.00 | 0.00 | 0.00 | 69 | 1016.5 |
| 20260507143100 | 83 | 285 | 0.9 | 6.1 | 0.00 | 0.00 | 0.00 | 72 | 1016.6 |
| 20260507141555 | 82 | 259 | 2.6 | 7.0 | 0.00 | 0.00 | 0.00 | 71 | 1016.5 |
| 20260507140048 | 81 | 218 | 1.7 | 3.5 | 0.00 | 0.00 | 0.00 | 73 | 1016.6 |
| 20260507134553 | 80 | 56 | 0.9 | 4.3 | 0.00 | 0.00 | 0.00 | 74 | 1016.7 |
| 20260507133042 | 79 | 179 | 1.7 | 6.1 | 0.00 | 0.00 | 0.00 | 77 | 1016.6 |
| 20260507131540 | 78 | 176 | 1.7 | 4.3 | 0.00 | 0.00 | 0.00 | 80 | 1016.5 |
| 20260507130034 | 76 | 186 | 0.0 | 3.5 | 0.00 | 0.00 | 0.00 | 84 | 1016.7 |
| 20260507124533 | 74 | 299 | 0.9 | 2.6 | 0.00 | 0.00 | 0.00 | 87 | 1016.7 |
| 20260507123033 | 71 | 224 | 0.0 | 1.7 | 0.00 | 0.00 | 0.00 | 92 | 1016.7 |
| 20260507121532 | 69 | 181 | 0.0 | 2.6 | 0.00 | 0.00 | 0.00 | 95 | 1016.7 |
| 20260507120030 | 68 | 196 | 0.0 | 0.9 | 0.00 | 0.00 | 0.00 | 95 | 1016.6 |
| 20260507114533 | 67 | 196 | 0.0 | 0.0 | 0.00 | 0.00 | 0.00 | 95 | 1016.6 |
| 20260507113028 | 66 | 196 | 0.0 | 0.0 | 0.00 | 0.00 | 0.00 | 94 | 1016.6 |
| 20260507111530 | 66 | 196 | 0.0 | 0.0 | 0.00 | 0.00 | 0.00 | 94 | 1016.3 |
| 20260507110035 | 65 | 196 | 0.0 | 0.0 | 0.00 | 0.00 | 0.00 | 94 | 1016.2 |
| 20260507104527 | 65 | 196 | 0.0 | 0.0 | 0.00 | 0.00 | 0.00 | 94 | 1016.1 |
| 20260507103029 | 65 | 196 | 0.0 | 0.0 | 0.00 | 0.00 | 0.00 | 94 | 1016.0 |
| 20260507101526 | 65 | 196 | 0.0 | 0.0 | 0.00 | 0.00 | 0.00 | 93 | 1015.8 |
| 20260507100028 | 65 | 196 | 0.0 | 0.0 | 0.00 | 0.00 | 0.00 | 93 | 1015.5 |
| 20260507094524 | 65 | 196 | 0.0 | 0.0 | 0.00 | 0.00 | 0.00 | 93 | 1015.1 |
| 20260507093024 | 65 | 196 | 0.0 | 0.0 | 0.00 | 0.00 | 0.00 | 93 | 1015.1 |
| 20260507091524 | 65 | 196 | 0.0 | 0.0 | 0.00 | 0.00 | 0.00 | 93 | 1015.2 |
| 20260507090034 | 65 | 196 | 0.0 | 0.0 | 0.00 | 0.00 | 0.00 | 92 | 1015.2 |
| 20260507084532 | 65 | 196 | 0.0 | 0.0 | 0.00 | 0.00 | 0.00 | 92 | 1015.2 |
| 20260507083021 | 66 | 196 | 0.0 | 0.0 | 0.00 | 0.00 | 0.00 | 92 | 1015.1 |
| 20260507081520 | 66 | 196 | 0.0 | 0.0 | 0.00 | 0.00 | 0.00 | 92 | 1014.9 |
| 20260507080018 | 66 | 196 | 0.0 | 0.0 | 0.00 | 0.00 | 0.00 | 91 | 1014.9 |
| 20260507074527 | 66 | 170 | 0.0 | 0.0 | 0.00 | 0.00 | 0.00 | 91 | 1015.0 |
| 20260507073014 | 67 | 170 | 0.0 | 0.0 | 0.00 | 0.00 | 0.00 | 91 | 1015.1 |
| 20260507071513 | 67 | 170 | 0.0 | 0.0 | 0.00 | 0.00 | 0.00 | 90 | 1015.1 |
| 20260507070013 | 67 | 170 | 0.0 | 0.0 | 0.00 | 0.00 | 0.00 | 90 | 1015.4 |
| 20260507064507 | 67 | 170 | 0.0 | 0.0 | 0.00 | 0.00 | 0.00 | 89 | 1015.6 |
| 20260507063006 | 68 | 170 | 0.0 | 0.0 | 0.00 | 0.00 | 0.00 | 89 | 1015.8 |
| 20260507061503 | 69 | 170 | 0.0 | 0.9 | 0.00 | 0.00 | 0.00 | 88 | 1015.8 |
| 20260507060001 | 69 | 170 | 0.0 | 0.0 | 0.00 | 0.00 | 0.00 | 88 | 1016.0 |
| 20260507054600 | 70 | 124 | 0.0 | 0.9 | 0.00 | 0.00 | 0.00 | 87 | 1016.0 |
| 20260507053056 | 70 | 203 | 0.0 | 0.9 | 0.00 | 0.00 | 0.00 | 86 | 1016.2 |
| 20260507051555 | 71 | 181 | 0.0 | 1.7 | 0.00 | 0.00 | 0.00 | 85 | 1016.4 |
| 20260507050050 | 72 | 235 | 0.0 | 1.7 | 0.00 | 0.00 | 0.00 | 84 | 1016.7 |
| 20260507044548 | 74 | 216 | 0.0 | 3.5 | 0.00 | 0.00 | 0.00 | 82 | 1016.8 |
| 20260507043044 | 75 | 74 | 0.0 | 1.7 | 0.00 | 0.00 | 0.00 | 81 | 1016.2 |
| 20260507041540 | 75 | 99 | 0.0 | 3.5 | 0.00 | 0.00 | 0.00 | 80 | 1015.9 |
| 20260507040038 | 75 | 92 | 0.9 | 5.2 | 0.00 | 0.00 | 0.00 | 80 | 1016.0 |
| 20260507034551 | 76 | 88 | 0.0 | 2.6 | 0.00 | 0.00 | 0.00 | 80 | 1016.2 |
| 20260507033041 | 76 | 86 | 0.9 | 2.6 | 0.00 | 0.00 | 0.00 | 79 | 1016.1 |
| 20260507031535 | 76 | 93 | 0.0 | 3.5 | 0.00 | 0.00 | 0.00 | 79 | 1016.3 |
| 20260507030036 | 76 | 98 | 0.0 | 1.7 | 0.00 | 0.00 | 0.00 | 78 | 1016.0 |
| 20260507024548 | 76 | 90 | 0.9 | 3.5 | 0.00 | 0.00 | 0.00 | 78 | 1016.1 |
| 20260507023032 | 76 | 103 | 0.9 | 1.7 | 0.00 | 0.00 | 0.00 | 77 | 1016.4 |
| 20260507021540 | 76 | 93 | 0.0 | 3.5 | 0.00 | 0.00 | 0.00 | 77 | 1016.3 |
| 20260507020032 | 76 | 94 | 0.9 | 2.6 | 0.00 | 0.00 | 0.00 | 75 | 1016.3 |
| 20260507014539 | 76 | 88 | 0.0 | 1.7 | 0.00 | 0.00 | 0.00 | 74 | 1016.4 |
| 20260507013031 | 76 | 63 | 0.0 | 2.6 | 0.00 | 0.00 | 0.00 | 73 | 1016.4 |
| 20260507011539 | 77 | 113 | 0.9 | 2.6 | 0.00 | 0.00 | 0.00 | 72 | 1016.3 |
| 20260507010030 | 77 | 101 | 0.0 | 1.7 | 0.00 | 0.00 | 0.00 | 71 | 1016.2 |
| 20260507004528 | 77 | 100 | 0.9 | 1.7 | 0.00 | 0.00 | 0.00 | 70 | 1016.1 |
| 20260507003027 | 77 | 91 | 0.9 | 2.6 | 0.00 | 0.00 | 0.00 | 67 | 1016.0 |
| 20260507001527 | 78 | 93 | 0.9 | 3.5 | 0.00 | 0.00 | 0.00 | 64 | 1015.8 |
| 20260507000025 | 78 | 84 | 0.9 | 6.1 | 0.00 | 0.00 | 0.00 | 63 | 1015.6 |
| 20260506234525 | 79 | 87 | 1.7 | 5.2 | 0.00 | 0.00 | 0.00 | 60 | 1015.7 |
| 20260506233025 | 80 | 88 | 1.7 | 4.3 | 0.00 | 0.00 | 0.00 | 57 | 1015.7 |
| 20260506231524 | 80 | 80 | 0.9 | 5.2 | 0.00 | 0.00 | 0.00 | 57 | 1015.9 |
| 20260506230023 | 81 | 82 | 0.9 | 6.1 | 0.00 | 0.00 | 0.00 | 57 | 1015.8 |
| 20260506224523 | 82 | 92 | 2.6 | 5.2 | 0.00 | 0.00 | 0.00 | 56 | 1015.8 |
| 20260506223022 | 82 | 128 | 1.7 | 6.1 | 0.00 | 0.00 | 0.00 | 59 | 1015.7 |
| 20260506221521 | 83 | 107 | 1.7 | 7.8 | 0.00 | 0.00 | 0.00 | 57 | 1015.9 |
| 20260506220021 | 84 | 95 | 0.9 | 6.1 | 0.00 | 0.00 | 0.00 | 57 | 1015.9 |
| 20260506214520 | 83 | 59 | 1.7 | 7.8 | 0.00 | 0.00 | 0.00 | 58 | 1015.9 |
| 20260506213020 | 84 | 137 | 1.7 | 6.1 | 0.00 | 0.00 | 0.00 | 56 | 1015.9 |
| 20260506211518 | 84 | 94 | 1.7 | 7.8 | 0.00 | 0.00 | 0.00 | 54 | 1016.0 |
| 20260506210018 | 85 | 96 | 2.6 | 6.1 | 0.00 | 0.00 | 0.00 | 52 | 1016.0 |
| 20260506204521 | 85 | 118 | 1.7 | 6.1 | 0.00 | 0.00 | 0.00 | 51 | 1016.1 |
| 20260506203017 | 85 | 49 | 1.7 | 7.0 | 0.00 | 0.00 | 0.00 | 53 | 1015.9 |
| 20260506201523 | 85 | 119 | 2.6 | 7.8 | 0.00 | 0.00 | 0.00 | 53 | 1016.0 |
| 20260506200017 | 86 | 82 | 1.7 | 7.8 | 0.00 | 0.00 | 0.00 | 50 | 1016.0 |
| 20260506194515 | 86 | 97 | 1.7 | 7.8 | 0.00 | 0.00 | 0.00 | 54 | 1016.1 |
| 20260506193014 | 86 | 151 | 2.6 | 6.1 | 0.00 | 0.00 | 0.00 | 51 | 1016.3 |
| 20260506191513 | 86 | 138 | 1.7 | 4.3 | 0.00 | 0.00 | 0.00 | 53 | 1016.4 |
| 20260506190012 | 86 | 107 | 2.6 | 6.1 | 0.00 | 0.00 | 0.00 | 50 | 1016.6 |
| 20260506184520 | 86 | 142 | 2.6 | 7.0 | 0.00 | 0.00 | 0.00 | 52 | 1016.6 |
| 20260506183013 | 86 | 130 | 1.7 | 5.2 | 0.00 | 0.00 | 0.00 | 53 | 1016.8 |
| 20260506181510 | 86 | 88 | 1.7 | 7.8 | 0.00 | 0.00 | 0.00 | 51 | 1016.8 |